createdAt,value
2018-12-30T00:00:48.959Z,1.5
2018-12-30T00:01:38.660Z,1.5
2018-12-30T00:02:29.621Z,1.5
2018-12-30T00:03:19.779Z,1.5
2018-12-30T00:04:10.061Z,1.4
2018-12-30T00:04:59.824Z,1.5
2018-12-30T00:05:50.239Z,1.4
2018-12-30T00:06:42.290Z,1.4
2018-12-30T00:07:28.834Z,1.4
2018-12-30T00:08:19.211Z,1.4
2018-12-30T00:09:09.645Z,1.4
2018-12-30T00:09:59.016Z,1.4
2018-12-30T00:10:49.403Z,1.4
2018-12-30T00:11:39.388Z,1.4
2018-12-30T00:12:29.717Z,1.4
2018-12-30T00:13:18.944Z,1.4
2018-12-30T00:14:09.568Z,1.4
2018-12-30T00:14:59.620Z,1.4
2018-12-30T00:33:06.896Z,1.4
2018-12-30T00:33:56.667Z,1.4
2018-12-30T00:34:47.032Z,1.4
2018-12-30T00:35:37.927Z,1.4
2018-12-30T00:36:26.812Z,1.4
2018-12-30T00:37:16.599Z,1.4
2018-12-30T00:38:07.184Z,1.4
2018-12-30T00:38:57.258Z,1.4
2018-12-30T00:39:47.297Z,1.4
2018-12-30T00:40:37.364Z,1.4
2018-12-30T00:41:27.427Z,1.4
2018-12-30T00:42:17.486Z,1.4
2018-12-30T00:43:07.543Z,1.4
2018-12-30T00:43:57.301Z,1.4
2018-12-30T00:44:47.906Z,1.4
2018-12-30T00:45:37.442Z,1.4
2018-12-30T00:46:27.495Z,1.4
2018-12-30T00:47:17.853Z,1.4
2018-12-30T00:48:09.031Z,1.4
2018-12-30T00:48:57.666Z,1.4
2018-12-30T00:49:47.985Z,1.4
2018-12-30T00:50:38.043Z,1.4
2018-12-30T00:51:28.104Z,1.4
2018-12-30T00:52:17.900Z,1.4
2018-12-30T00:53:07.964Z,1.4
2018-12-30T00:53:58.573Z,1.3
2018-12-30T00:54:48.091Z,1.3
2018-12-30T00:55:38.128Z,1.3
2018-12-30T00:56:28.696Z,1.4
2018-12-30T00:57:18.616Z,1.3
2018-12-30T00:58:08.810Z,1.3
2018-12-30T00:58:58.621Z,1.3
2018-12-30T00:59:48.719Z,1.3
2018-12-30T01:00:39.566Z,1.3
2018-12-30T01:01:28.539Z,1.3
2018-12-30T01:02:18.865Z,1.3
2018-12-30T01:03:08.628Z,1.3
2018-12-30T01:03:58.738Z,1.3
2018-12-30T01:04:49.015Z,1.3
2018-12-30T01:05:39.095Z,1.3
2018-12-30T01:06:29.172Z,1.3
2018-12-30T01:07:19.200Z,1.3
2018-12-30T01:08:08.725Z,1.3
2018-12-30T01:08:59.068Z,1.3
2018-12-30T01:09:49.809Z,1.3
2018-12-30T01:10:39.432Z,1.3
2018-12-30T01:11:29.222Z,1.3
2018-12-30T01:12:19.580Z,1.3
2018-12-30T01:13:10.250Z,1.3
2018-12-30T01:13:59.379Z,1.3
2018-12-30T01:14:49.726Z,1.3
2018-12-30T01:15:39.780Z,1.3
2018-12-30T01:16:29.807Z,1.3
2018-12-30T01:17:19.630Z,1.3
2018-12-30T01:18:09.664Z,1.3
2018-12-30T01:18:59.751Z,1.3
2018-12-30T01:19:50.085Z,1.3
2018-12-30T01:20:40.122Z,1.3
2018-12-30T01:21:30.192Z,1.3
2018-12-30T01:22:34.329Z,1.3
2018-12-30T01:23:10.276Z,1.3
2018-12-30T01:24:00.089Z,1.3
2018-12-30T01:24:50.414Z,1.3
2018-12-30T01:25:41.436Z,1.3
2018-12-30T01:26:30.218Z,1.3
2018-12-30T01:27:20.313Z,1.3
2018-12-30T01:28:10.654Z,1.3
2018-12-30T01:29:00.136Z,1.3
2018-12-30T01:29:50.478Z,1.3
2018-12-30T01:30:40.818Z,1.3
2018-12-30T01:31:30.858Z,1.3
2018-12-30T01:32:20.921Z,1.3
2018-12-30T01:33:10.460Z,1.3
2018-12-30T01:34:00.749Z,1.3
2018-12-30T01:34:51.078Z,1.3
2018-12-30T01:35:41.158Z,1.3
2018-12-30T01:36:31.205Z,1.3
2018-12-30T01:37:21.253Z,1.3
2018-12-30T01:38:11.640Z,1.3
2018-12-30T01:39:01.110Z,1.3
2018-12-30T01:39:51.696Z,1.3
2018-12-30T01:40:41.493Z,1.3
2018-12-30T01:41:32.170Z,1.3
2018-12-30T01:42:21.317Z,1.3
2018-12-30T01:43:11.411Z,1.3
2018-12-30T01:44:01.812Z,1.3
2018-12-30T01:44:51.855Z,1.3
2018-12-30T01:45:41.824Z,1.3
2018-12-30T01:46:32.400Z,1.3
2018-12-30T01:47:21.677Z,1.3
2018-12-30T01:48:11.180Z,1.3
2018-12-30T01:49:02.057Z,1.3
2018-12-30T01:49:51.856Z,1.3
2018-12-30T01:50:42.425Z,1.3
2018-12-30T01:51:34.742Z,1.3
2018-12-30T01:52:22.314Z,1.3
2018-12-30T01:53:12.364Z,1.3
2018-12-30T01:54:03.369Z,1.3
2018-12-30T01:54:52.199Z,1.3
2018-12-30T01:55:42.329Z,1.3
2018-12-30T01:56:32.286Z,1.3
2018-12-30T01:57:22.654Z,1.3
2018-12-30T01:58:12.427Z,1.3
2018-12-30T01:59:02.749Z,1.3
2018-12-30T01:59:52.807Z,1.3
2018-12-30T02:00:42.924Z,1.3
2018-12-30T02:01:32.933Z,1.3
2018-12-30T02:02:22.713Z,1.3
2018-12-30T02:03:13.088Z,1.3
2018-12-30T02:04:02.531Z,1.3
2018-12-30T02:04:52.949Z,1.3
2018-12-30T02:05:43.491Z,1.3
2018-12-30T02:06:33.820Z,1.3
2018-12-30T02:07:23.035Z,1.3
2018-12-30T02:08:13.083Z,1.3
2018-12-30T02:09:03.142Z,1.3
2018-12-30T02:09:54.043Z,1.3
2018-12-30T02:10:43.270Z,1.3
2018-12-30T02:11:33.584Z,1.3
2018-12-30T02:12:23.372Z,1.3
2018-12-30T02:13:13.422Z,1.3
2018-12-30T02:14:03.209Z,1.3
2018-12-30T02:14:53.823Z,1.3
2018-12-30T02:15:43.877Z,1.3
2018-12-30T02:16:33.672Z,1.3
2018-12-30T02:17:23.705Z,1.3
2018-12-30T02:18:14.063Z,1.3
2018-12-30T02:19:04.104Z,1.3
2018-12-30T02:19:53.883Z,1.3
2018-12-30T02:20:44.522Z,1.3
2018-12-30T02:21:41.989Z,1.3
2018-12-30T02:22:24.045Z,1.3
2018-12-30T02:23:14.397Z,1.3
2018-12-30T02:24:04.482Z,1.3
2018-12-30T02:24:54.506Z,1.3
2018-12-30T02:25:45.202Z,1.3
2018-12-30T02:26:34.649Z,1.3
2018-12-30T02:27:24.694Z,1.3
2018-12-30T02:28:14.734Z,1.3
2018-12-30T02:29:05.574Z,1.3
2018-12-30T02:29:54.862Z,1.3
2018-12-30T02:30:44.911Z,1.3
2018-12-30T02:31:34.707Z,1.3
2018-12-30T02:32:25.626Z,1.3
2018-12-30T02:33:15.087Z,1.3
2018-12-30T02:34:05.163Z,1.3
2018-12-30T02:34:55.282Z,1.3
2018-12-30T02:35:44.956Z,1.3
2018-12-30T02:36:35.351Z,1.3
2018-12-30T02:37:25.119Z,1.3
2018-12-30T02:38:15.168Z,1.3
2018-12-30T02:39:05.337Z,1.3
2018-12-30T02:39:55.275Z,1.3
2018-12-30T02:40:45.661Z,1.3
2018-12-30T02:41:35.646Z,1.3
2018-12-30T02:42:25.181Z,1.3
2018-12-30T02:43:16.274Z,1.3
2018-12-30T02:44:05.864Z,1.3
2018-12-30T02:44:56.048Z,1.3
2018-12-30T02:45:46.189Z,1.3
2018-12-30T02:46:36.009Z,1.3
2018-12-30T02:47:26.066Z,1.3
2018-12-30T02:48:16.939Z,1.3
2018-12-30T02:49:06.219Z,1.3
2018-12-30T02:49:55.961Z,1.3
2018-12-30T02:50:46.023Z,1.3
2018-12-30T02:51:37.353Z,1.3
2018-12-30T02:52:26.381Z,1.3
2018-12-30T02:53:16.459Z,1.3
2018-12-30T02:54:06.793Z,1.3
2018-12-30T02:54:56.563Z,1.3
2018-12-30T02:55:46.639Z,1.3
2018-12-30T02:56:36.720Z,1.3
2018-12-30T02:57:26.795Z,1.3
2018-12-30T02:58:16.793Z,1.3
2018-12-30T02:59:06.835Z,1.3
2018-12-30T02:59:56.940Z,1.3
2018-12-30T03:00:46.677Z,1.3
2018-12-30T03:01:37.289Z,1.3
2018-12-30T03:02:27.414Z,1.3
2018-12-30T03:03:17.133Z,1.3
2018-12-30T03:04:07.007Z,1.3
2018-12-30T03:04:57.247Z,1.3
2018-12-30T03:05:47.322Z,1.3
2018-12-30T03:06:37.100Z,1.3
2018-12-30T03:07:27.423Z,1.3
2018-12-30T03:08:17.226Z,1.3
2018-12-30T03:09:06.986Z,1.3
2018-12-30T03:09:57.336Z,1.3
2018-12-30T03:10:47.941Z,1.3
2018-12-30T03:11:37.709Z,1.3
2018-12-30T03:12:27.752Z,1.3
2018-12-30T03:13:17.905Z,1.3
2018-12-30T03:14:07.965Z,1.3
2018-12-30T03:14:57.400Z,1.3
2018-12-30T03:15:47.707Z,1.3
2018-12-30T03:16:38.042Z,1.3
2018-12-30T03:17:29.011Z,1.3
2018-12-30T03:18:17.900Z,1.3
2018-12-30T03:19:07.781Z,1.3
2018-12-30T03:19:58.279Z,1.3
2018-12-30T03:20:48.946Z,1.3
2018-12-30T03:21:38.134Z,1.3
2018-12-30T03:22:28.453Z,1.3
2018-12-30T03:23:18.233Z,1.3
2018-12-30T03:24:08.299Z,1.3
2018-12-30T03:24:58.860Z,1.3
2018-12-30T03:25:48.692Z,1.3
2018-12-30T03:26:38.743Z,1.3
2018-12-30T03:27:28.516Z,1.3
2018-12-30T03:28:18.571Z,1.3
2018-12-30T03:29:08.609Z,1.3
2018-12-30T03:29:58.963Z,1.3
2018-12-30T03:30:49.132Z,1.3
2018-12-30T03:31:38.848Z,1.3
2018-12-30T03:32:29.170Z,1.3
2018-12-30T03:33:19.209Z,1.3
2018-12-30T03:34:09.245Z,1.3
2018-12-30T03:34:59.283Z,1.3
2018-12-30T03:35:49.178Z,1.3
2018-12-30T03:36:39.438Z,1.3
2018-12-30T03:37:29.185Z,1.3
2018-12-30T03:38:19.245Z,1.3
2018-12-30T03:39:09.843Z,1.3
2018-12-30T03:39:59.640Z,1.3
2018-12-30T03:40:49.706Z,1.3
2018-12-30T03:41:39.763Z,1.3
2018-12-30T03:42:29.828Z,1.3
2018-12-30T03:43:19.871Z,1.3
2018-12-30T03:44:09.985Z,1.3
2018-12-30T03:44:59.710Z,1.3
2018-12-30T03:45:49.768Z,1.3
2018-12-30T03:46:39.561Z,1.3
2018-12-30T03:47:30.187Z,1.3
2018-12-30T03:48:20.233Z,1.3
2018-12-30T03:49:09.734Z,1.3
2018-12-30T03:50:00.086Z,1.3
2018-12-30T03:50:50.106Z,1.3
2018-12-30T03:51:40.174Z,1.3
2018-12-30T03:52:30.505Z,1.3
2018-12-30T03:53:20.292Z,1.3
2018-12-30T03:54:10.637Z,1.3
2018-12-30T03:55:00.685Z,1.3
2018-12-30T03:55:50.732Z,1.3
2018-12-30T03:56:40.782Z,1.3
2018-12-30T03:57:30.845Z,1.3
2018-12-30T03:58:20.368Z,1.3
2018-12-30T03:59:10.692Z,1.3
2018-12-30T04:00:00.488Z,1.3
2018-12-30T04:00:51.087Z,1.3
2018-12-30T04:01:41.128Z,1.3
2018-12-30T04:02:30.971Z,1.3
2018-12-30T04:03:21.252Z,1.3
2018-12-30T04:04:11.308Z,1.3
2018-12-30T04:05:01.405Z,1.3
2018-12-30T04:05:50.874Z,1.3
2018-12-30T04:06:41.214Z,1.3
2018-12-30T04:07:31.277Z,1.3
2018-12-30T04:08:21.594Z,1.3
2018-12-30T04:09:11.379Z,1.3
2018-12-30T04:10:01.683Z,1.3
2018-12-30T04:10:51.766Z,1.3
2018-12-30T04:11:41.824Z,1.3
2018-12-30T04:12:31.591Z,1.3
2018-12-30T04:13:22.188Z,1.3
2018-12-30T04:14:11.993Z,1.3
2018-12-30T04:15:02.055Z,1.2
2018-12-30T04:15:51.836Z,1.3
2018-12-30T04:16:41.929Z,1.2
2018-12-30T04:17:32.216Z,1.3
2018-12-30T04:18:22.299Z,1.3
2018-12-30T04:19:12.336Z,1.3
2018-12-30T04:20:02.406Z,1.3
2018-12-30T04:20:52.183Z,1.3
2018-12-30T04:21:42.513Z,1.2
2018-12-30T04:22:33.863Z,1.3
2018-12-30T04:23:22.620Z,1.2
2018-12-30T04:24:12.146Z,1.3
2018-12-30T04:25:03.047Z,1.2
2018-12-30T04:25:52.895Z,1.2
2018-12-30T04:26:42.873Z,1.3
2018-12-30T04:27:32.625Z,1.3
2018-12-30T04:28:22.691Z,1.3
2018-12-30T04:29:13.025Z,1.2
2018-12-30T04:30:02.815Z,1.2
2018-12-30T04:30:53.152Z,1.3
2018-12-30T04:31:43.198Z,1.3
2018-12-30T04:32:32.977Z,1.2
2018-12-30T04:33:23.033Z,1.2
2018-12-30T04:34:13.375Z,1.2
2018-12-30T04:35:03.193Z,1.2
2018-12-30T04:35:53.234Z,1.2
2018-12-30T04:36:43.260Z,1.2
2018-12-30T04:37:33.593Z,1.2
2018-12-30T04:38:23.420Z,1.2
2018-12-30T04:39:13.470Z,1.2
2018-12-30T04:40:03.523Z,1.2
2018-12-30T04:40:53.831Z,1.2
2018-12-30T04:41:43.895Z,1.2
2018-12-30T04:42:34.030Z,1.2
2018-12-30T04:43:23.741Z,1.2
2018-12-30T04:44:14.050Z,1.2
2018-12-30T04:45:03.839Z,1.2
2018-12-30T05:02:26.849Z,1.2
2018-12-30T05:03:16.853Z,1.2
2018-12-30T05:04:06.909Z,1.2
2018-12-30T05:04:56.963Z,1.2
2018-12-30T05:05:46.756Z,1.2
2018-12-30T05:06:37.098Z,1.2
2018-12-30T05:07:27.106Z,1.2
2018-12-30T05:08:17.178Z,1.2
2018-12-30T05:09:07.231Z,1.2
2018-12-30T05:09:57.301Z,1.2
2018-12-30T05:10:47.345Z,1.2
2018-12-30T05:11:37.403Z,1.2
2018-12-30T05:12:27.459Z,1.2
2018-12-30T05:13:17.525Z,1.2
2018-12-30T05:14:07.307Z,1.2
2018-12-30T05:14:57.385Z,1.2
2018-12-30T05:15:47.146Z,1.2
2018-12-30T05:16:37.760Z,1.2
2018-12-30T05:17:27.533Z,1.2
2018-12-30T05:18:17.318Z,1.2
2018-12-30T05:19:07.923Z,1.2
2018-12-30T05:19:57.442Z,1.2
2018-12-30T05:20:48.034Z,1.2
2018-12-30T05:21:38.080Z,1.1
2018-12-30T05:22:34.942Z,1.1
2018-12-30T05:23:17.660Z,1.2
2018-12-30T05:24:07.994Z,1.1
2018-12-30T05:24:58.308Z,1.2
2018-12-30T05:25:48.383Z,1.1
2018-12-30T05:26:38.152Z,1.1
2018-12-30T05:27:27.936Z,1.1
2018-12-30T05:28:18.530Z,1.1
2018-12-30T05:29:08.607Z,1.1
2018-12-30T05:29:58.665Z,1.1
2018-12-30T05:30:48.452Z,1.1
2018-12-30T05:31:38.285Z,1.1
2018-12-30T05:32:28.827Z,1.1
2018-12-30T05:33:19.142Z,1.1
2018-12-30T05:34:08.952Z,1.1
2018-12-30T05:34:58.739Z,1.1
2018-12-30T05:35:49.082Z,1.1
2018-12-30T05:36:39.142Z,1.1
2018-12-30T05:37:29.276Z,1.1
2018-12-30T05:38:18.964Z,1.1
2018-12-30T05:39:09.306Z,1.1
2018-12-30T05:39:59.089Z,1.1
2018-12-30T05:40:49.421Z,1.1
2018-12-30T05:41:38.916Z,1.1
2018-12-30T05:42:29.526Z,1.1
2018-12-30T05:43:19.821Z,1.1
2018-12-30T05:44:09.663Z,1.1
2018-12-30T05:44:59.778Z,1.1
2018-12-30T05:45:49.749Z,1.1
2018-12-30T05:46:39.808Z,1.1
2018-12-30T05:47:29.601Z,1.1
2018-12-30T05:48:19.923Z,1.1
2018-12-30T05:49:09.701Z,1.1
2018-12-30T05:50:00.144Z,1.1
2018-12-30T05:50:49.878Z,1.1
2018-12-30T05:51:39.608Z,1.1
2018-12-30T05:52:29.929Z,1.1
2018-12-30T05:53:20.515Z,1.1
2018-12-30T05:54:10.407Z,1.1
2018-12-30T05:55:00.374Z,1.1
2018-12-30T05:55:50.159Z,1.1
2018-12-30T05:56:40.210Z,1.1
2018-12-30T05:57:30.270Z,1.1
2018-12-30T05:58:20.605Z,1.1
2018-12-30T05:59:10.655Z,1.1
2018-12-30T06:00:00.472Z,1.1
2018-12-30T06:00:50.512Z,1.1
2018-12-30T06:01:40.305Z,1.1
2018-12-30T06:02:30.622Z,1.1
2018-12-30T06:03:20.689Z,1.1
2018-12-30T06:04:11.000Z,1.1
2018-12-30T06:05:01.393Z,1.1
2018-12-30T06:05:51.082Z,1.1
2018-12-30T06:06:41.164Z,1
2018-12-30T06:07:30.967Z,1.1
2018-12-30T06:08:21.287Z,1.1
2018-12-30T06:09:11.081Z,1.1
2018-12-30T06:10:01.268Z,1
2018-12-30T06:10:51.181Z,1.1
2018-12-30T06:11:41.236Z,1
2018-12-30T06:12:31.569Z,1.1
2018-12-30T06:13:21.633Z,1
2018-12-30T06:14:11.691Z,1.1
2018-12-30T06:15:01.798Z,1
2018-12-30T06:15:51.791Z,1.1
2018-12-30T06:16:41.583Z,1
2018-12-30T06:17:31.916Z,1
2018-12-30T06:18:21.968Z,1.1
2018-12-30T06:19:11.468Z,1
2018-12-30T06:20:01.803Z,1
2018-12-30T06:20:52.128Z,1
2018-12-30T06:21:42.199Z,1
2018-12-30T06:22:31.968Z,1.1
2018-12-30T06:23:22.321Z,1
2018-12-30T06:24:12.368Z,1
2018-12-30T06:25:01.892Z,1.1
2018-12-30T06:25:52.743Z,1
2018-12-30T06:26:42.558Z,1.1
2018-12-30T06:27:32.597Z,1
2018-12-30T06:28:22.365Z,1
2018-12-30T06:29:12.700Z,1
2018-12-30T06:30:02.493Z,1.1
2018-12-30T06:30:52.792Z,1
2018-12-30T06:31:42.883Z,1
2018-12-30T06:32:32.927Z,1
2018-12-30T06:33:23.033Z,1.1
2018-12-30T06:34:13.043Z,1
2018-12-30T06:35:02.596Z,1
2018-12-30T06:35:52.895Z,1
2018-12-30T06:36:42.959Z,1.1
2018-12-30T06:37:33.274Z,1.1
2018-12-30T06:38:23.399Z,1.1
2018-12-30T06:39:13.379Z,1.1
2018-12-30T06:40:11.065Z,1.1
2018-12-30T06:40:53.247Z,1.1
2018-12-30T06:41:43.254Z,1.1
2018-12-30T06:42:33.611Z,1.1
2018-12-30T06:43:23.664Z,1.1
2018-12-30T06:44:13.729Z,1.1
2018-12-30T06:45:03.794Z,1.1
2018-12-30T06:45:53.841Z,1.1
2018-12-30T06:46:43.871Z,1.1
2018-12-30T06:47:33.681Z,1.1
2018-12-30T06:48:24.009Z,1.1
2018-12-30T06:49:14.087Z,1.2
2018-12-30T06:50:04.141Z,1.1
2018-12-30T06:50:53.921Z,1.2
2018-12-30T06:51:44.240Z,1.1
2018-12-30T06:52:34.021Z,1.2
2018-12-30T06:53:24.360Z,1.2
2018-12-30T06:54:14.404Z,1.2
2018-12-30T06:55:04.471Z,1.2
2018-12-30T06:55:54.521Z,1.2
2018-12-30T06:56:44.028Z,1.3
2018-12-30T06:57:34.636Z,1.3
2018-12-30T06:58:24.459Z,1.3
2018-12-30T06:59:14.471Z,1.3
2018-12-30T07:00:04.806Z,1.3
2018-12-30T07:00:54.581Z,1.3
2018-12-30T07:01:45.163Z,1.3
2018-12-30T07:02:34.973Z,1.3
2018-12-30T07:03:25.042Z,1.3
2018-12-30T07:04:14.555Z,1.3
2018-12-30T07:05:04.871Z,1.4
2018-12-30T07:05:55.205Z,1.4
2018-12-30T07:06:45.306Z,1.4
2018-12-30T07:07:35.316Z,1.4
2018-12-30T07:08:25.380Z,1.4
2018-12-30T07:09:15.430Z,1.4
2018-12-30T07:10:05.491Z,1.5
2018-12-30T07:10:55.273Z,1.5
2018-12-30T07:11:45.603Z,1.5
2018-12-30T07:12:35.372Z,1.6
2018-12-30T07:13:25.697Z,1.6
2018-12-30T07:14:15.772Z,1.6
2018-12-30T07:15:05.287Z,1.6
2018-12-30T07:15:56.112Z,1.6
2018-12-30T07:16:45.937Z,1.7
2018-12-30T07:17:35.990Z,1.7
2018-12-30T07:18:26.142Z,1.8
2018-12-30T07:19:15.577Z,1.8
2018-12-30T07:20:05.910Z,1.8
2018-12-30T07:20:55.644Z,1.8
2018-12-30T07:21:46.281Z,1.9
2018-12-30T07:22:36.342Z,1.9
2018-12-30T07:23:26.125Z,1.9
2018-12-30T07:24:16.447Z,2
2018-12-30T07:25:06.221Z,2.1
2018-12-30T07:25:56.568Z,2.1
2018-12-30T07:26:46.074Z,2.1
2018-12-30T07:27:36.399Z,2.2
2018-12-30T07:28:26.734Z,2.3
2018-12-30T07:29:16.799Z,2.3
2018-12-30T07:30:06.574Z,2.4
2018-12-30T07:30:56.891Z,2.4
2018-12-30T07:31:46.701Z,2.5
2018-12-30T07:32:37.031Z,2.5
2018-12-30T07:33:26.806Z,2.6
2018-12-30T07:34:16.591Z,2.6
2018-12-30T07:35:07.196Z,2.7
2018-12-30T07:35:57.251Z,2.8
2018-12-30T07:36:47.023Z,2.8
2018-12-30T07:37:37.358Z,2.8
2018-12-30T07:38:27.433Z,2.9
2018-12-30T07:39:17.468Z,2.9
2018-12-30T07:40:07.268Z,3
2018-12-30T07:40:57.581Z,3
2018-12-30T07:41:47.366Z,3
2018-12-30T07:42:37.704Z,3.1
2018-12-30T07:43:27.764Z,3.1
2018-12-30T07:44:17.544Z,3.1
2018-12-30T07:45:07.619Z,3.2
2018-12-30T07:45:57.662Z,3.2
2018-12-30T07:46:47.968Z,3.3
2018-12-30T07:47:37.767Z,3.3
2018-12-30T07:48:28.108Z,3.3
2018-12-30T07:49:18.165Z,3.4
2018-12-30T07:50:07.958Z,3.4
2018-12-30T07:50:58.004Z,3.4
2018-12-30T07:51:48.376Z,3.4
2018-12-30T07:52:38.442Z,3.5
2018-12-30T07:53:28.448Z,3.6
2018-12-30T07:54:18.519Z,3.6
2018-12-30T07:55:08.279Z,3.6
2018-12-30T07:55:58.344Z,3.6
2018-12-30T07:56:48.401Z,3.7
2018-12-30T07:57:38.989Z,3.8
2018-12-30T07:58:28.569Z,3.8
2018-12-30T07:59:18.920Z,3.8
2018-12-30T08:00:08.906Z,3.8
2018-12-30T08:00:58.681Z,3.9
2018-12-30T08:01:49.011Z,3.9
2018-12-30T08:02:38.801Z,3.9
2018-12-30T08:03:29.387Z,3.9
2018-12-30T08:04:19.189Z,3.9
2018-12-30T08:05:08.978Z,4
2018-12-30T08:05:59.311Z,4.1
2018-12-30T08:06:49.093Z,4.1
2018-12-30T08:07:39.416Z,4.1
2018-12-30T08:08:29.456Z,4.2
2018-12-30T08:09:19.258Z,4.2
2018-12-30T08:10:09.317Z,4.3
2018-12-30T08:10:59.690Z,4.3
2018-12-30T08:11:49.435Z,4.3
2018-12-30T08:12:39.758Z,4.3
2018-12-30T08:13:29.821Z,4.4
2018-12-30T08:14:19.875Z,4.4
2018-12-30T08:15:09.651Z,4.4
2018-12-30T08:15:59.998Z,4.5
2018-12-30T08:16:50.036Z,4.5
2018-12-30T08:17:40.397Z,4.6
2018-12-30T08:18:29.878Z,4.6
2018-12-30T08:19:19.657Z,4.7
2018-12-30T08:20:09.990Z,4.7
2018-12-30T08:21:00.325Z,4.8
2018-12-30T08:21:50.381Z,4.8
2018-12-30T08:22:40.173Z,4.9
2018-12-30T08:23:30.212Z,4.9
2018-12-30T08:24:20.571Z,4.9
2018-12-30T08:25:10.317Z,5
2018-12-30T08:26:00.660Z,5.1
2018-12-30T08:26:50.715Z,5.1
2018-12-30T08:27:40.850Z,5.2
2018-12-30T08:28:31.072Z,5.3
2018-12-30T08:29:20.892Z,5.3
2018-12-30T08:30:10.675Z,5.4
2018-12-30T08:31:00.456Z,5.4
2018-12-30T08:31:51.135Z,5.5
2018-12-30T08:32:41.126Z,5.6
2018-12-30T08:33:30.891Z,5.6
2018-12-30T08:34:21.240Z,5.7
2018-12-30T08:35:11.014Z,5.7
2018-12-30T08:36:01.342Z,5.8
2018-12-30T08:36:51.144Z,5.8
2018-12-30T08:37:41.457Z,5.9
2018-12-30T08:38:31.509Z,5.9
2018-12-30T08:39:21.011Z,6
2018-12-30T08:40:11.359Z,6
2018-12-30T08:41:02.919Z,6.1
2018-12-30T08:41:51.466Z,6.1
2018-12-30T08:42:41.516Z,6.2
2018-12-30T08:43:31.319Z,6.2
2018-12-30T08:44:21.929Z,6.3
2018-12-30T08:45:11.695Z,6.3
2018-12-30T08:46:01.484Z,6.4
2018-12-30T08:46:52.092Z,6.4
2018-12-30T08:47:42.129Z,6.4
2018-12-30T08:48:32.201Z,6.5
2018-12-30T08:49:21.974Z,6.5
2018-12-30T08:50:12.308Z,6.6
2018-12-30T08:51:02.376Z,6.6
2018-12-30T08:51:52.418Z,6.7
2018-12-30T08:52:42.481Z,6.7
2018-12-30T08:53:32.271Z,6.8
2018-12-30T08:54:22.437Z,6.9
2018-12-30T08:55:12.380Z,6.9
2018-12-30T08:56:02.462Z,6.9
2018-12-30T08:56:52.761Z,7
2018-12-30T08:57:42.823Z,7.1
2018-12-30T08:58:32.625Z,7.1
2018-12-30T08:59:22.658Z,7.2
2018-12-30T09:00:12.450Z,7.3
2018-12-30T09:01:03.055Z,7.3
2018-12-30T09:16:51.085Z,8.1
2018-12-30T09:17:41.135Z,8.2
2018-12-30T09:18:31.155Z,8.2
2018-12-30T09:19:21.311Z,8.3
2018-12-30T09:20:10.985Z,8.3
2018-12-30T09:21:01.071Z,8.3
2018-12-30T09:21:51.610Z,8.3
2018-12-30T09:22:41.151Z,8.3
2018-12-30T09:23:38.545Z,8.3
2018-12-30T09:24:21.792Z,8.3
2018-12-30T09:25:11.602Z,8.4
2018-12-30T09:26:01.382Z,8.4
2018-12-30T09:26:51.726Z,8.4
2018-12-30T09:27:41.756Z,8.4
2018-12-30T09:28:31.552Z,8.4
2018-12-30T09:29:21.582Z,8.4
2018-12-30T09:30:11.941Z,8.4
2018-12-30T09:31:01.709Z,8.4
2018-12-30T09:31:51.498Z,8.4
2018-12-30T09:32:41.838Z,8.4
2018-12-30T09:33:31.897Z,8.4
2018-12-30T09:34:21.945Z,8.4
2018-12-30T09:35:12.281Z,8.4
2018-12-30T09:36:01.799Z,8.4
2018-12-30T09:36:54.288Z,8.4
2018-12-30T09:37:42.152Z,8.4
2018-12-30T09:38:32.517Z,8.4
2018-12-30T09:39:22.291Z,8.4
2018-12-30T09:40:12.616Z,8.4
2018-12-30T09:41:02.498Z,8.4
2018-12-30T09:41:52.743Z,8.4
2018-12-30T09:42:42.753Z,8.4
2018-12-30T09:43:32.848Z,8.4
2018-12-30T09:44:22.914Z,8.4
2018-12-30T09:45:12.696Z,8.4
2018-12-30T09:46:02.206Z,8.4
2018-12-30T09:46:52.796Z,8.4
2018-12-30T09:47:43.140Z,8.4
2018-12-30T09:48:35.155Z,8.4
2018-12-30T09:49:23.250Z,8.4
2018-12-30T09:50:13.303Z,8.3
2018-12-30T09:51:03.356Z,8.4
2018-12-30T09:51:53.143Z,8.3
2018-12-30T09:52:43.478Z,8.3
2018-12-30T09:53:33.268Z,8.3
2018-12-30T09:54:23.055Z,8.3
2018-12-30T09:55:13.647Z,8.3
2018-12-30T09:56:03.702Z,8.3
2018-12-30T09:56:53.753Z,8.3
2018-12-30T09:57:44.075Z,8.3
2018-12-30T09:58:33.932Z,8.3
2018-12-30T09:59:23.740Z,8.3
2018-12-30T10:00:13.993Z,8.3
2018-12-30T10:01:04.055Z,8.3
2018-12-30T10:01:53.835Z,8.3
2018-12-30T10:02:44.167Z,8.2
2018-12-30T10:03:34.220Z,8.2
2018-12-30T10:04:24.000Z,8.2
2018-12-30T10:05:14.325Z,8.2
2018-12-30T10:06:04.392Z,8.2
2018-12-30T10:06:54.167Z,8.2
2018-12-30T10:07:44.505Z,8.2
2018-12-30T10:08:34.560Z,8.2
2018-12-30T10:09:24.612Z,8.1
2018-12-30T10:10:14.677Z,8.2
2018-12-30T10:11:04.724Z,8.2
2018-12-30T10:11:54.592Z,8.2
2018-12-30T10:12:44.842Z,8.1
2018-12-30T10:13:34.897Z,8.1
2018-12-30T10:14:24.966Z,8.1
2018-12-30T10:15:14.464Z,8.1
2018-12-30T10:16:04.800Z,8.1
2018-12-30T10:16:55.142Z,8.1
2018-12-30T10:17:45.196Z,8.1
2018-12-30T10:18:34.981Z,8.1
2018-12-30T10:19:24.479Z,8.1
2018-12-30T10:20:15.085Z,8.1
2018-12-30T10:21:05.419Z,8.1
2018-12-30T10:21:55.471Z,8.1
2018-12-30T10:22:45.529Z,8.1
2018-12-30T10:23:35.312Z,8.1
2018-12-30T10:24:25.366Z,8.1
2018-12-30T10:25:15.446Z,8.1
2018-12-30T10:26:05.765Z,8.1
2018-12-30T10:26:55.543Z,8.1
2018-12-30T10:27:45.879Z,8.1
2018-12-30T10:28:35.913Z,8.1
2018-12-30T10:29:25.966Z,8.1
2018-12-30T10:30:15.757Z,8.1
2018-12-30T10:31:05.824Z,8.1
2018-12-30T10:31:55.883Z,8.1
2018-12-30T10:32:46.222Z,8.1
2018-12-30T10:33:36.558Z,8.1
2018-12-30T10:34:26.411Z,8.1
2018-12-30T10:35:16.380Z,8
2018-12-30T10:36:06.163Z,8
2018-12-30T10:36:56.233Z,8
2018-12-30T10:37:46.556Z,8
2018-12-30T10:38:36.358Z,7.9
2018-12-30T10:39:26.672Z,7.9
2018-12-30T10:40:16.733Z,7.9
2018-12-30T10:41:06.507Z,7.9
2018-12-30T10:41:58.699Z,7.9
2018-12-30T10:42:46.903Z,7.9
2018-12-30T10:43:36.739Z,7.9
2018-12-30T10:44:27.010Z,7.9
2018-12-30T10:45:17.072Z,7.9
2018-12-30T10:46:06.900Z,7.8
2018-12-30T10:46:57.171Z,7.8
2018-12-30T10:47:47.242Z,7.8
2018-12-30T10:48:37.824Z,7.8
2018-12-30T10:49:27.350Z,7.8
2018-12-30T10:50:17.712Z,7.8
2018-12-30T10:51:06.959Z,7.8
2018-12-30T10:51:57.770Z,7.8
2018-12-30T10:52:47.297Z,7.8
2018-12-30T10:53:37.644Z,7.8
2018-12-30T10:54:27.426Z,7.7
2018-12-30T10:55:17.481Z,7.7
2018-12-30T10:56:07.811Z,7.7
2018-12-30T10:56:57.856Z,7.7
2018-12-30T10:57:47.371Z,7.7
2018-12-30T10:58:37.716Z,7.7
2018-12-30T10:59:28.034Z,7.7
2018-12-30T11:00:18.126Z,7.7
2018-12-30T11:01:08.141Z,7.7
2018-12-30T11:01:58.214Z,7.7
2018-12-30T11:02:48.266Z,7.7
2018-12-30T11:03:38.044Z,7.7
2018-12-30T11:04:28.373Z,7.7
2018-12-30T11:05:18.171Z,7.7
2018-12-30T11:06:07.669Z,7.7
2018-12-30T11:06:58.283Z,7.7
2018-12-30T11:07:48.329Z,7.7
2018-12-30T11:08:38.386Z,7.7
2018-12-30T11:09:28.748Z,7.7
2018-12-30T11:10:18.783Z,7.7
2018-12-30T11:11:08.564Z,7.7
2018-12-30T11:11:58.905Z,7.7
2018-12-30T11:12:48.670Z,7.7
2018-12-30T11:13:39.011Z,7.7
2018-12-30T11:14:28.783Z,7.7
2018-12-30T11:15:19.110Z,7.7
2018-12-30T11:16:08.894Z,7.7
2018-12-30T11:16:59.231Z,7.7
2018-12-30T11:17:49.036Z,7.7
2018-12-30T11:18:39.058Z,7.7
2018-12-30T11:19:28.906Z,7.7
2018-12-30T11:20:19.473Z,7.7
2018-12-30T11:21:09.518Z,7.6
2018-12-30T11:21:59.578Z,7.7
2018-12-30T11:22:49.724Z,7.6
2018-12-30T11:23:39.682Z,7.7
2018-12-30T11:24:29.740Z,7.7
2018-12-30T11:25:19.812Z,7.7
2018-12-30T11:26:09.848Z,7.7
2018-12-30T11:26:59.908Z,7.6
2018-12-30T11:27:49.961Z,7.6
2018-12-30T11:28:40.022Z,7.6
2018-12-30T11:29:30.080Z,7.6
2018-12-30T11:30:19.939Z,7.6
2018-12-30T11:31:09.909Z,7.6
2018-12-30T11:32:00.290Z,7.6
2018-12-30T11:32:50.027Z,7.6
2018-12-30T11:33:39.827Z,7.6
2018-12-30T11:34:30.143Z,7.6
2018-12-30T11:35:20.472Z,7.6
2018-12-30T11:36:10.539Z,7.6
2018-12-30T11:37:00.324Z,7.6
2018-12-30T11:37:50.365Z,7.6
2018-12-30T11:38:40.440Z,7.6
2018-12-30T11:39:30.826Z,7.6
2018-12-30T11:40:20.546Z,7.6
2018-12-30T11:41:10.877Z,7.6
2018-12-30T11:42:00.663Z,7.6
2018-12-30T11:42:50.993Z,7.6
2018-12-30T11:43:41.046Z,7.6
2018-12-30T11:44:31.099Z,7.6
2018-12-30T11:45:21.155Z,7.6
2018-12-30T11:46:11.455Z,7.6
2018-12-30T11:47:03.212Z,7.6
2018-12-30T11:47:51.333Z,7.6
2018-12-30T11:48:41.387Z,7.6
2018-12-30T11:49:30.912Z,7.6
2018-12-30T11:50:21.494Z,7.6
2018-12-30T11:51:11.577Z,7.6
2018-12-30T11:52:01.068Z,7.6
2018-12-30T11:52:51.405Z,7.6
2018-12-30T11:53:41.437Z,7.6
2018-12-30T11:54:31.502Z,7.6
2018-12-30T11:55:21.830Z,7.6
2018-12-30T11:56:11.614Z,7.6
2018-12-30T11:57:01.950Z,7.6
2018-12-30T11:57:51.732Z,7.6
2018-12-30T11:58:41.797Z,7.6
2018-12-30T11:59:32.120Z,7.6
2018-12-30T12:00:21.949Z,7.6
2018-12-30T12:01:11.695Z,7.6
2018-12-30T12:02:01.795Z,7.6
2018-12-30T12:02:52.342Z,7.7
2018-12-30T12:03:42.132Z,7.7
2018-12-30T12:04:32.452Z,7.7
2018-12-30T12:05:22.525Z,7.7
2018-12-30T12:06:12.572Z,7.7
2018-12-30T12:07:02.890Z,7.7
2018-12-30T12:07:52.412Z,7.7
2018-12-30T12:08:42.473Z,7.7
2018-12-30T12:09:32.239Z,7.7
2018-12-30T12:10:22.577Z,7.7
2018-12-30T12:11:12.629Z,7.7
2018-12-30T12:12:02.694Z,7.8
2018-12-30T12:12:52.751Z,7.8
2018-12-30T12:13:43.084Z,7.8
2018-12-30T12:14:33.137Z,7.8
2018-12-30T12:15:22.934Z,7.8
2018-12-30T12:16:12.979Z,7.8
2018-12-30T12:17:03.350Z,7.8
2018-12-30T12:17:53.401Z,7.8
2018-12-30T12:18:43.139Z,7.8
2018-12-30T12:19:33.478Z,7.8
2018-12-30T12:20:23.539Z,7.8